sensor_id;sensor_type;location;lat;lon;timestamp;pressure;altitude;pressure_sealevel;temperature;humidity
7832;BME280;3961;42.058;25.586;2023-12-07T00:01:33;100146.63;;;7.42;100.00
7832;BME280;3961;42.058;25.586;2023-12-07T00:04:03;100158.72;;;7.39;100.00
7832;BME280;3961;42.058;25.586;2023-12-07T00:06:28;100162.00;;;7.28;100.00
7832;BME280;3961;42.058;25.586;2023-12-07T00:08:54;100158.44;;;7.28;100.00
7832;BME280;3961;42.058;25.586;2023-12-07T00:11:22;100155.97;;;7.33;100.00
7832;BME280;3961;42.058;25.586;2023-12-07T00:13:48;100160.56;;;7.32;100.00
7832;BME280;3961;42.058;25.586;2023-12-07T00:16:14;100156.16;;;7.31;100.00
7832;BME280;3961;42.058;25.586;2023-12-07T00:18:39;100152.41;;;7.32;100.00
7832;BME280;3961;42.058;25.586;2023-12-07T00:21:05;100154.09;;;7.33;100.00
7832;BME280;3961;42.058;25.586;2023-12-07T00:23:32;100152.41;;;7.32;100.00
7832;BME280;3961;42.058;25.586;2023-12-07T00:25:58;100158.28;;;7.36;100.00
7832;BME280;3961;42.058;25.586;2023-12-07T00:28:23;100160.38;;;7.40;100.00
7832;BME280;3961;42.058;25.586;2023-12-07T00:30:49;100153.31;;;7.39;100.00
7832;BME280;3961;42.058;25.586;2023-12-07T00:33:14;100154.34;;;7.38;100.00
7832;BME280;3961;42.058;25.586;2023-12-07T00:35:42;100155.31;;;7.31;100.00
7832;BME280;3961;42.058;25.586;2023-12-07T00:38:08;100158.50;;;7.34;100.00
7832;BME280;3961;42.058;25.586;2023-12-07T00:40:34;100165.31;;;7.30;100.00
7832;BME280;3961;42.058;25.586;2023-12-07T00:43:02;100159.66;;;7.25;100.00
7832;BME280;3961;42.058;25.586;2023-12-07T00:45:28;100157.78;;;7.26;100.00
7832;BME280;3961;42.058;25.586;2023-12-07T00:47:54;100157.53;;;7.20;100.00
7832;BME280;3961;42.058;25.586;2023-12-07T00:50:20;100161.09;;;7.21;100.00
7832;BME280;3961;42.058;25.586;2023-12-07T00:52:45;100157.66;;;7.06;100.00
7832;BME280;3961;42.058;25.586;2023-12-07T00:55:11;100150.97;;;7.02;100.00
7832;BME280;3961;42.058;25.586;2023-12-07T00:57:36;100156.88;;;7.12;100.00
7832;BME280;3961;42.058;25.586;2023-12-07T01:00:02;100148.56;;;7.13;100.00
7832;BME280;3961;42.058;25.586;2023-12-07T01:02:29;100161.50;;;7.18;100.00
7832;BME280;3961;42.058;25.586;2023-12-07T01:04:54;100162.47;;;7.10;100.00
7832;BME280;3961;42.058;25.586;2023-12-07T01:07:20;100158.56;;;7.13;100.00
7832;BME280;3961;42.058;25.586;2023-12-07T01:09:46;100163.38;;;7.17;100.00
7832;BME280;3961;42.058;25.586;2023-12-07T01:12:12;100158.75;;;7.11;100.00
7832;BME280;3961;42.058;25.586;2023-12-07T01:14:38;100158.75;;;7.11;100.00
7832;BME280;3961;42.058;25.586;2023-12-07T01:17:04;100153.31;;;7.11;100.00
7832;BME280;3961;42.058;25.586;2023-12-07T01:19:29;100142.66;;;7.10;100.00
7832;BME280;3961;42.058;25.586;2023-12-07T01:21:55;100147.00;;;7.04;100.00
7832;BME280;3961;42.058;25.586;2023-12-07T01:24:20;100143.91;;;7.07;100.00
7832;BME280;3961;42.058;25.586;2023-12-07T01:26:46;100145.13;;;7.05;100.00
7832;BME280;3961;42.058;25.586;2023-12-07T01:29:11;100140.13;;;7.02;100.00
7832;BME280;3961;42.058;25.586;2023-12-07T01:31:40;100140.72;;;6.97;100.00
7832;BME280;3961;42.058;25.586;2023-12-07T01:34:05;100144.22;;;6.91;100.00
7832;BME280;3961;42.058;25.586;2023-12-07T01:36:31;100138.00;;;6.97;100.00
7832;BME280;3961;42.058;25.586;2023-12-07T01:38:56;100138.88;;;7.04;100.00
7832;BME280;3961;42.058;25.586;2023-12-07T01:41:22;100144.34;;;7.11;100.00
7832;BME280;3961;42.058;25.586;2023-12-07T01:43:48;100134.16;;;7.13;100.00
7832;BME280;3961;42.058;25.586;2023-12-07T01:46:15;100133.38;;;7.19;100.00
7832;BME280;3961;42.058;25.586;2023-12-07T01:48:42;100136.91;;;7.19;100.00
7832;BME280;3961;42.058;25.586;2023-12-07T01:51:09;100126.41;;;7.10;100.00
7832;BME280;3961;42.058;25.586;2023-12-07T01:53:38;100138.38;;;7.22;100.00
7832;BME280;3961;42.058;25.586;2023-12-07T01:56:04;100134.53;;;7.10;100.00
7832;BME280;3961;42.058;25.586;2023-12-07T01:58:30;100136.41;;;7.09;100.00
7832;BME280;3961;42.058;25.586;2023-12-07T02:00:56;100137.47;;;7.08;100.00
7832;BME280;3961;42.058;25.586;2023-12-07T02:03:23;100134.75;;;7.08;100.00
7832;BME280;3961;42.058;25.586;2023-12-07T02:05:48;100139.53;;;7.06;100.00
7832;BME280;3961;42.058;25.586;2023-12-07T02:08:15;100134.69;;;7.02;100.00
7832;BME280;3961;42.058;25.586;2023-12-07T02:10:41;100133.63;;;6.96;100.00
7832;BME280;3961;42.058;25.586;2023-12-07T02:13:07;100142.09;;;6.87;100.00
7832;BME280;3961;42.058;25.586;2023-12-07T02:15:32;100128.44;;;6.73;100.00
7832;BME280;3961;42.058;25.586;2023-12-07T02:18:17;100132.56;;;6.69;100.00
7832;BME280;3961;42.058;25.586;2023-12-07T02:23:25;100140.78;;;6.83;100.00
7832;BME280;3961;42.058;25.586;2023-12-07T02:26:19;100143.47;;;6.76;100.00
7832;BME280;3961;42.058;25.586;2023-12-07T02:28:46;100145.59;;;6.81;100.00
7832;BME280;3961;42.058;25.586;2023-12-07T02:31:11;100146.88;;;6.85;100.00
7832;BME280;3961;42.058;25.586;2023-12-07T02:33:37;100141.97;;;6.73;100.00
7832;BME280;3961;42.058;25.586;2023-12-07T02:36:03;100149.00;;;6.68;100.00
7832;BME280;3961;42.058;25.586;2023-12-07T02:38:29;100148.94;;;6.61;100.00
7832;BME280;3961;42.058;25.586;2023-12-07T02:40:56;100144.00;;;6.65;100.00
7832;BME280;3961;42.058;25.586;2023-12-07T02:43:22;100146.78;;;6.50;100.00
7832;BME280;3961;42.058;25.586;2023-12-07T02:45:48;100138.13;;;6.40;100.00
7832;BME280;3961;42.058;25.586;2023-12-07T02:48:14;100137.41;;;6.31;100.00
7832;BME280;3961;42.058;25.586;2023-12-07T02:50:40;100148.44;;;6.30;100.00
7832;BME280;3961;42.058;25.586;2023-12-07T02:53:06;100151.47;;;6.20;100.00
7832;BME280;3961;42.058;25.586;2023-12-07T02:55:31;100143.06;;;6.15;100.00
7832;BME280;3961;42.058;25.586;2023-12-07T02:57:57;100146.69;;;6.22;100.00
7832;BME280;3961;42.058;25.586;2023-12-07T03:00:23;100143.53;;;6.19;100.00
7832;BME280;3961;42.058;25.586;2023-12-07T03:02:48;100143.78;;;6.03;100.00
7832;BME280;3961;42.058;25.586;2023-12-07T03:05:16;100122.63;;;5.91;100.00
7832;BME280;3961;42.058;25.586;2023-12-07T03:07:41;100138.91;;;6.13;100.00
7832;BME280;3961;42.058;25.586;2023-12-07T03:10:07;100148.50;;;6.15;100.00
7832;BME280;3961;42.058;25.586;2023-12-07T03:12:33;100145.47;;;6.25;100.00
7832;BME280;3961;42.058;25.586;2023-12-07T03:14:59;100151.53;;;6.27;100.00
7832;BME280;3961;42.058;25.586;2023-12-07T03:17:24;100147.28;;;6.18;100.00
7832;BME280;3961;42.058;25.586;2023-12-07T03:19:50;100150.63;;;6.20;100.00
7832;BME280;3961;42.058;25.586;2023-12-07T03:22:16;100135.97;;;6.14;100.00
7832;BME280;3961;42.058;25.586;2023-12-07T03:24:46;100148.75;;;6.20;100.00
7832;BME280;3961;42.058;25.586;2023-12-07T03:27:12;100155.84;;;6.21;100.00
7832;BME280;3961;42.058;25.586;2023-12-07T03:29:38;100150.63;;;6.20;100.00
7832;BME280;3961;42.058;25.586;2023-12-07T03:32:04;100141.22;;;6.16;100.00
7832;BME280;3961;42.058;25.586;2023-12-07T03:34:29;100134.63;;;6.25;100.00
7832;BME280;3961;42.058;25.586;2023-12-07T03:36:55;100147.59;;;6.29;100.00
7832;BME280;3961;42.058;25.586;2023-12-07T03:39:20;100141.56;;;6.27;100.00
7832;BME280;3961;42.058;25.586;2023-12-07T03:41:50;100145.28;;;6.26;100.00
7832;BME280;3961;42.058;25.586;2023-12-07T03:44:16;100126.41;;;6.12;100.00
7832;BME280;3961;42.058;25.586;2023-12-07T03:46:42;100140.56;;;6.14;100.00
7832;BME280;3961;42.058;25.586;2023-12-07T03:49:08;100144.31;;;6.13;100.00
7832;BME280;3961;42.058;25.586;2023-12-07T03:51:34;100147.66;;;6.15;100.00
7832;BME280;3961;42.058;25.586;2023-12-07T03:54:02;100149.25;;;6.09;100.00
7832;BME280;3961;42.058;25.586;2023-12-07T03:56:29;100147.13;;;6.05;100.00
7832;BME280;3961;42.058;25.586;2023-12-07T03:58:56;100145.69;;;6.09;100.00
7832;BME280;3961;42.058;25.586;2023-12-07T04:01:23;100139.06;;;5.90;100.00
7832;BME280;3961;42.058;25.586;2023-12-07T04:03:50;100142.97;;;5.87;100.00
7832;BME280;3961;42.058;25.586;2023-12-07T04:06:16;100142.03;;;5.80;100.00
7832;BME280;3961;42.058;25.586;2023-12-07T04:08:42;100106.72;;;5.52;100.00
7832;BME280;3961;42.058;25.586;2023-12-07T04:11:07;100142.78;;;5.74;100.00
7832;BME280;3961;42.058;25.586;2023-12-07T04:13:33;100145.56;;;5.81;100.00
7832;BME280;3961;42.058;25.586;2023-12-07T04:15:58;100151.53;;;5.76;100.00
7832;BME280;3961;42.058;25.586;2023-12-07T04:18:24;100150.72;;;5.76;100.00
7832;BME280;3961;42.058;25.586;2023-12-07T04:20:50;100155.72;;;5.79;100.00
7832;BME280;3961;42.058;25.586;2023-12-07T04:23:15;100157.16;;;5.75;100.00
7832;BME280;3961;42.058;25.586;2023-12-07T04:25:41;100157.41;;;5.80;100.00
7832;BME280;3961;42.058;25.586;2023-12-07T04:28:07;100158.34;;;5.87;100.00
7832;BME280;3961;42.058;25.586;2023-12-07T04:30:32;100159.72;;;5.83;100.00
7832;BME280;3961;42.058;25.586;2023-12-07T04:32:58;100157.16;;;5.89;100.00
7832;BME280;3961;42.058;25.586;2023-12-07T04:35:23;100161.63;;;5.97;100.00
7832;BME280;3961;42.058;25.586;2023-12-07T04:37:49;100157.22;;;5.96;100.00
7832;BME280;3961;42.058;25.586;2023-12-07T04:40:15;100160.03;;;6.03;100.00
7832;BME280;3961;42.058;25.586;2023-12-07T04:42:41;100166.19;;;5.97;100.00
7832;BME280;3961;42.058;25.586;2023-12-07T04:45:06;100163.75;;;5.87;100.00
7832;BME280;3961;42.058;25.586;2023-12-07T04:47:32;100163.41;;;5.90;100.00
7832;BME280;3961;42.058;25.586;2023-12-07T04:49:58;100167.97;;;5.89;100.00
7832;BME280;3961;42.058;25.586;2023-12-07T04:52:24;100163.00;;;5.93;100.00
7832;BME280;3961;42.058;25.586;2023-12-07T04:54:49;100132.16;;;5.73;100.00
7832;BME280;3961;42.058;25.586;2023-12-07T04:57:15;100130.00;;;5.68;100.00
7832;BME280;3961;42.058;25.586;2023-12-07T04:59:40;100161.91;;;5.87;100.00
7832;BME280;3961;42.058;25.586;2023-12-07T05:02:06;100167.31;;;5.87;100.00
7832;BME280;3961;42.058;25.586;2023-12-07T05:04:32;100165.25;;;5.89;100.00
7832;BME280;3961;42.058;25.586;2023-12-07T05:06:58;100165.09;;;5.91;100.00
7832;BME280;3961;42.058;25.586;2023-12-07T05:09:25;100174.94;;;5.99;100.00
7832;BME280;3961;42.058;25.586;2023-12-07T05:11:51;100168.94;;;6.03;100.00
7832;BME280;3961;42.058;25.586;2023-12-07T05:14:16;100173.25;;;5.98;100.00
7832;BME280;3961;42.058;25.586;2023-12-07T05:16:42;100168.63;;;5.91;100.00
7832;BME280;3961;42.058;25.586;2023-12-07T05:19:07;100175.69;;;5.92;100.00
7832;BME280;3961;42.058;25.586;2023-12-07T05:21:33;100181.00;;;5.86;100.00
7832;BME280;3961;42.058;25.586;2023-12-07T05:23:59;100175.13;;;5.68;100.00
7832;BME280;3961;42.058;25.586;2023-12-07T05:26:24;100171.25;;;5.70;100.00
7832;BME280;3961;42.058;25.586;2023-12-07T05:28:50;100174.84;;;5.77;100.00
7832;BME280;3961;42.058;25.586;2023-12-07T05:31:19;100168.97;;;5.74;100.00
7832;BME280;3961;42.058;25.586;2023-12-07T05:33:45;100172.22;;;5.84;100.00
7832;BME280;3961;42.058;25.586;2023-12-07T05:36:10;100180.06;;;5.93;100.00
7832;BME280;3961;42.058;25.586;2023-12-07T05:38:37;100184.47;;;5.94;100.00
7832;BME280;3961;42.058;25.586;2023-12-07T05:41:02;100181.09;;;5.92;100.00
7832;BME280;3961;42.058;25.586;2023-12-07T05:43:28;100177.59;;;5.92;100.00
7832;BME280;3961;42.058;25.586;2023-12-07T05:45:54;100187.44;;;5.85;100.00
7832;BME280;3961;42.058;25.586;2023-12-07T05:48:19;100178.28;;;5.71;100.00
7832;BME280;3961;42.058;25.586;2023-12-07T05:50:45;100192.19;;;5.83;100.00
7832;BME280;3961;42.058;25.586;2023-12-07T05:53:10;100202.38;;;5.96;100.00
7832;BME280;3961;42.058;25.586;2023-12-07T05:55:38;100210.94;;;5.99;100.00
7832;BME280;3961;42.058;25.586;2023-12-07T05:58:04;100211.97;;;5.98;100.00
7832;BME280;3961;42.058;25.586;2023-12-07T06:00:29;100217.84;;;5.87;100.00
7832;BME280;3961;42.058;25.586;2023-12-07T06:02:55;100210.75;;;5.57;100.00
7832;BME280;3961;42.058;25.586;2023-12-07T06:05:20;100204.16;;;5.59;100.00
7832;BME280;3961;42.058;25.586;2023-12-07T06:07:46;100219.44;;;5.67;100.00
7832;BME280;3961;42.058;25.586;2023-12-07T06:10:12;100221.22;;;5.89;100.00
7832;BME280;3961;42.058;25.586;2023-12-07T06:12:37;100229.78;;;5.92;100.00
7832;BME280;3961;42.058;25.586;2023-12-07T06:15:04;100215.69;;;5.82;100.00
7832;BME280;3961;42.058;25.586;2023-12-07T06:17:33;100217.75;;;5.80;100.00
7832;BME280;3961;42.058;25.586;2023-12-07T06:19:59;100220.03;;;5.91;100.00
7832;BME280;3961;42.058;25.586;2023-12-07T06:22:24;100225.66;;;5.82;100.00
7832;BME280;3961;42.058;25.586;2023-12-07T06:24:50;100224.94;;;5.88;100.00
7832;BME280;3961;42.058;25.586;2023-12-07T06:27:16;100222.78;;;5.98;100.00
7832;BME280;3961;42.058;25.586;2023-12-07T06:29:41;100229.44;;;5.96;100.00
7832;BME280;3961;42.058;25.586;2023-12-07T06:32:07;100228.97;;;6.07;100.00
7832;BME280;3961;42.058;25.586;2023-12-07T06:34:32;100241.38;;;6.01;100.00
7832;BME280;3961;42.058;25.586;2023-12-07T06:36:58;100247.91;;;5.92;100.00
7832;BME280;3961;42.058;25.586;2023-12-07T06:39:24;100255.13;;;5.47;100.00
7832;BME280;3961;42.058;25.586;2023-12-07T06:41:49;100242.16;;;5.28;100.00
7832;BME280;3961;42.058;25.586;2023-12-07T06:44:15;100249.16;;;5.37;100.00
7832;BME280;3961;42.058;25.586;2023-12-07T06:46:40;100242.09;;;5.51;100.00
7832;BME280;3961;42.058;25.586;2023-12-07T06:49:06;100241.81;;;5.61;100.00
7832;BME280;3961;42.058;25.586;2023-12-07T06:51:31;100236.97;;;5.71;100.00
7832;BME280;3961;42.058;25.586;2023-12-07T06:53:57;100244.81;;;5.80;100.00
7832;BME280;3961;42.058;25.586;2023-12-07T06:56:22;100246.50;;;5.81;100.00
7832;BME280;3961;42.058;25.586;2023-12-07T06:58:48;100238.75;;;5.93;100.00
7832;BME280;3961;42.058;25.586;2023-12-07T07:01:13;100248.66;;;6.01;100.00
7832;BME280;3961;42.058;25.586;2023-12-07T07:03:39;100245.09;;;6.00;100.00
7832;BME280;3961;42.058;25.586;2023-12-07T07:06:05;100252.03;;;6.03;100.00
7832;BME280;3961;42.058;25.586;2023-12-07T07:08:30;100246.84;;;6.22;100.00
7832;BME280;3961;42.058;25.586;2023-12-07T07:10:56;100252.44;;;6.21;100.00
7832;BME280;3961;42.058;25.586;2023-12-07T07:13:22;100256.44;;;6.40;100.00
7832;BME280;3961;42.058;25.586;2023-12-07T07:15:48;100252.66;;;6.55;100.00
7832;BME280;3961;42.058;25.586;2023-12-07T07:18:13;100256.25;;;6.62;100.00
7832;BME280;3961;42.058;25.586;2023-12-07T07:20:39;100238.28;;;6.55;100.00
7832;BME280;3961;42.058;25.586;2023-12-07T07:23:05;100254.56;;;6.61;100.00
7832;BME280;3961;42.058;25.586;2023-12-07T07:25:30;100254.53;;;6.76;100.00
7832;BME280;3961;42.058;25.586;2023-12-07T07:27:56;100259.81;;;6.84;100.00
7832;BME280;3961;42.058;25.586;2023-12-07T07:30:22;100255.63;;;6.82;100.00
7832;BME280;3961;42.058;25.586;2023-12-07T07:32:47;100259.75;;;6.99;100.00
7832;BME280;3961;42.058;25.586;2023-12-07T07:35:14;100262.34;;;7.07;100.00
7832;BME280;3961;42.058;25.586;2023-12-07T07:37:39;100249.38;;;7.02;100.00
7832;BME280;3961;42.058;25.586;2023-12-07T07:40:07;100266.63;;;7.22;100.00
7832;BME280;3961;42.058;25.586;2023-12-07T07:42:33;100263.19;;;7.35;100.00
7832;BME280;3961;42.058;25.586;2023-12-07T07:44:59;100283.31;;;7.47;100.00
7832;BME280;3961;42.058;25.586;2023-12-07T07:47:25;100270.78;;;7.46;100.00
7832;BME280;3961;42.058;25.586;2023-12-07T07:49:50;100280.50;;;7.62;100.00
7832;BME280;3961;42.058;25.586;2023-12-07T07:52:16;100282.22;;;7.70;100.00
7832;BME280;3961;42.058;25.586;2023-12-07T07:54:42;100278.78;;;7.82;100.00
7832;BME280;3961;42.058;25.586;2023-12-07T07:57:08;100283.25;;;7.96;100.00
7832;BME280;3961;42.058;25.586;2023-12-07T07:59:34;100285.66;;;8.19;100.00
7832;BME280;3961;42.058;25.586;2023-12-07T08:01:59;100289.53;;;8.38;100.00
7832;BME280;3961;42.058;25.586;2023-12-07T08:04:25;100290.59;;;8.43;100.00
7832;BME280;3961;42.058;25.586;2023-12-07T08:06:50;100286.19;;;8.42;100.00
7832;BME280;3961;42.058;25.586;2023-12-07T08:09:16;100288.72;;;8.44;100.00
7832;BME280;3961;42.058;25.586;2023-12-07T08:11:42;100285.19;;;8.50;100.00
7832;BME280;3961;42.058;25.586;2023-12-07T08:14:08;100289.19;;;8.54;100.00
7832;BME280;3961;42.058;25.586;2023-12-07T08:16:34;100287.56;;;8.66;100.00
7832;BME280;3961;42.058;25.586;2023-12-07T08:18:59;100293.00;;;8.73;100.00
7832;BME280;3961;42.058;25.586;2023-12-07T08:21:25;100297.00;;;8.77;100.00
7832;BME280;3961;42.058;25.586;2023-12-07T08:23:51;100295.31;;;8.76;100.00
7832;BME280;3961;42.058;25.586;2023-12-07T08:26:17;100252.41;;;8.58;100.00
7832;BME280;3961;42.058;25.586;2023-12-07T08:28:43;100291.78;;;8.88;100.00
7832;BME280;3961;42.058;25.586;2023-12-07T08:31:10;100290.53;;;8.91;100.00
7832;BME280;3961;42.058;25.586;2023-12-07T08:33:36;100300.16;;;9.00;100.00
7832;BME280;3961;42.058;25.586;2023-12-07T08:36:05;100290.38;;;9.12;100.00
7832;BME280;3961;42.058;25.586;2023-12-07T08:38:31;100298.53;;;9.19;100.00
7832;BME280;3961;42.058;25.586;2023-12-07T08:40:57;100302.50;;;9.23;100.00
7832;BME280;3961;42.058;25.586;2023-12-07T08:43:23;100305.03;;;9.24;100.00
7832;BME280;3961;42.058;25.586;2023-12-07T08:45:50;100306.47;;;9.20;100.00
7832;BME280;3961;42.058;25.586;2023-12-07T08:48:16;100311.09;;;9.26;100.00
7832;BME280;3961;42.058;25.586;2023-12-07T08:50:41;100315.28;;;9.22;100.00
7832;BME280;3961;42.058;25.586;2023-12-07T08:53:07;100307.75;;;9.18;100.00
7832;BME280;3961;42.058;25.586;2023-12-07T08:55:33;100308.13;;;9.15;100.00
7832;BME280;3961;42.058;25.586;2023-12-07T08:57:59;100306.91;;;9.24;100.00
7832;BME280;3961;42.058;25.586;2023-12-07T09:00:26;100312.78;;;9.34;100.00
7832;BME280;3961;42.058;25.586;2023-12-07T09:02:52;100304.81;;;9.39;100.00
7832;BME280;3961;42.058;25.586;2023-12-07T09:05:18;100300.84;;;9.35;100.00
7832;BME280;3961;42.058;25.586;2023-12-07T09:07:43;100296.44;;;9.47;100.00
7832;BME280;3961;42.058;25.586;2023-12-07T09:10:10;100290.38;;;9.52;100.00
7832;BME280;3961;42.058;25.586;2023-12-07T09:12:36;100291.44;;;9.51;100.00
7832;BME280;3961;42.058;25.586;2023-12-07T09:15:02;100284.53;;;9.61;100.00
7832;BME280;3961;42.058;25.586;2023-12-07T09:17:28;100285.78;;;9.65;100.00
7832;BME280;3961;42.058;25.586;2023-12-07T09:19:54;100296.22;;;9.82;100.00
7832;BME280;3961;42.058;25.586;2023-12-07T09:22:19;100279.00;;;9.94;100.00
7832;BME280;3961;42.058;25.586;2023-12-07T09:24:45;100282.34;;;10.03;100.00
7832;BME280;3961;42.058;25.586;2023-12-07T09:27:13;100286.13;;;10.02;100.00
7832;BME280;3961;42.058;25.586;2023-12-07T09:29:39;100288.22;;;10.06;100.00
7832;BME280;3961;42.058;25.586;2023-12-07T09:32:06;100274.00;;;10.04;100.00
7832;BME280;3961;42.058;25.586;2023-12-07T09:34:31;100279.41;;;10.11;100.00
7832;BME280;3961;42.058;25.586;2023-12-07T09:37:07;100271.47;;;10.09;100.00
7832;BME280;3961;42.058;25.586;2023-12-07T09:39:33;100276.28;;;10.07;100.00
7832;BME280;3961;42.058;25.586;2023-12-07T09:41:59;100265.38;;;10.14;100.00
7832;BME280;3961;42.058;25.586;2023-12-07T09:44:24;100260.97;;;10.13;100.00
7832;BME280;3961;42.058;25.586;2023-12-07T09:46:50;100256.16;;;10.15;100.00
7832;BME280;3961;42.058;25.586;2023-12-07T09:49:16;100260.13;;;10.26;100.00
7832;BME280;3961;42.058;25.586;2023-12-07T09:51:43;100257.34;;;10.32;100.00
7832;BME280;3961;42.058;25.586;2023-12-07T09:54:09;100255.88;;;10.36;100.00
7832;BME280;3961;42.058;25.586;2023-12-07T09:56:36;100254.41;;;10.40;100.00
7832;BME280;3961;42.058;25.586;2023-12-07T09:59:01;100248.13;;;10.33;100.00
7832;BME280;3961;42.058;25.586;2023-12-07T10:01:30;100255.03;;;10.36;100.00
7832;BME280;3961;42.058;25.586;2023-12-07T10:04:19;100254.31;;;10.53;100.00
7832;BME280;3961;42.058;25.586;2023-12-07T10:06:45;100251.28;;;10.68;100.00
7832;BME280;3961;42.058;25.586;2023-12-07T10:09:13;100248.22;;;10.58;100.00
7832;BME280;3961;42.058;25.586;2023-12-07T10:11:39;100248.69;;;10.48;100.00
7832;BME280;3961;42.058;25.586;2023-12-07T10:14:08;100248.38;;;10.63;100.00
7832;BME280;3961;42.058;25.586;2023-12-07T10:16:34;100238.69;;;10.74;100.00
7832;BME280;3961;42.058;25.586;2023-12-07T10:19:16;100245.38;;;10.78;100.00
7832;BME280;3961;42.058;25.586;2023-12-07T10:21:44;100235.56;;;10.70;100.00
7832;BME280;3961;42.058;25.586;2023-12-07T10:24:10;100222.38;;;10.67;100.00
7832;BME280;3961;42.058;25.586;2023-12-07T10:26:37;100237.97;;;10.85;100.00
7832;BME280;3961;42.058;25.586;2023-12-07T10:29:04;100223.69;;;10.89;100.00
7832;BME280;3961;42.058;25.586;2023-12-07T10:31:31;100234.84;;;11.13;100.00
7832;BME280;3961;42.058;25.586;2023-12-07T10:33:58;100229.63;;;11.11;100.00
7832;BME280;3961;42.058;25.586;2023-12-07T10:36:24;100193.88;;;10.94;100.00
7832;BME280;3961;42.058;25.586;2023-12-07T10:38:50;100220.22;;;11.07;100.00
7832;BME280;3961;42.058;25.586;2023-12-07T10:41:20;100228.69;;;11.24;100.00
7832;BME280;3961;42.058;25.586;2023-12-07T10:43:51;100226.06;;;11.11;100.00
7832;BME280;3961;42.058;25.586;2023-12-07T10:46:20;100236.88;;;10.99;100.00
7832;BME280;3961;42.058;25.586;2023-12-07T10:48:47;100229.31;;;10.94;100.00
7832;BME280;3961;42.058;25.586;2023-12-07T10:51:56;100221.50;;;11.05;100.00
7832;BME280;3961;42.058;25.586;2023-12-07T10:54:36;100225.84;;;11.12;100.00
7832;BME280;3961;42.058;25.586;2023-12-07T10:57:07;100237.41;;;11.08;100.00
7832;BME280;3961;42.058;25.586;2023-12-07T10:59:35;100221.88;;;11.08;100.00
7832;BME280;3961;42.058;25.586;2023-12-07T11:02:02;100218.81;;;11.23;100.00
7832;BME280;3961;42.058;25.586;2023-12-07T11:04:29;100221.78;;;11.46;100.00
7832;BME280;3961;42.058;25.586;2023-12-07T11:07:02;100223.06;;;11.43;100.00
7832;BME280;3961;42.058;25.586;2023-12-07T11:09:32;100215.03;;;11.49;100.00
7832;BME280;3961;42.058;25.586;2023-12-07T11:12:10;100211.78;;;11.58;100.00
7832;BME280;3961;42.058;25.586;2023-12-07T11:14:38;100216.06;;;11.72;100.00
7832;BME280;3961;42.058;25.586;2023-12-07T11:17:04;100203.94;;;11.68;100.00
7832;BME280;3961;42.058;25.586;2023-12-07T11:22:02;100213.31;;;11.72;100.00
7832;BME280;3961;42.058;25.586;2023-12-07T11:24:29;100210.09;;;11.82;100.00
7832;BME280;3961;42.058;25.586;2023-12-07T11:26:56;100207.56;;;11.62;100.00
7832;BME280;3961;42.058;25.586;2023-12-07T11:29:25;100206.84;;;11.49;100.00
7832;BME280;3961;42.058;25.586;2023-12-07T11:31:52;100211.44;;;11.48;100.00
7832;BME280;3961;42.058;25.586;2023-12-07T11:34:35;100207.34;;;11.39;100.00
7832;BME280;3961;42.058;25.586;2023-12-07T11:37:02;100197.91;;;11.41;100.00
7832;BME280;3961;42.058;25.586;2023-12-07T11:39:38;100197.13;;;11.53;100.00
7832;BME280;3961;42.058;25.586;2023-12-07T11:42:18;100186.72;;;11.43;100.00
7832;BME280;3961;42.058;25.586;2023-12-07T11:44:48;100186.66;;;11.50;100.00
7832;BME280;3961;42.058;25.586;2023-12-07T11:47:17;100148.88;;;11.28;100.00
7832;BME280;3961;42.058;25.586;2023-12-07T11:49:44;100194.69;;;11.44;100.00
7832;BME280;3961;42.058;25.586;2023-12-07T11:52:19;100184.78;;;11.50;100.00
7832;BME280;3961;42.058;25.586;2023-12-07T11:54:47;100197.75;;;11.55;100.00
7832;BME280;3961;42.058;25.586;2023-12-07T11:57:23;100191.84;;;11.58;100.00
7832;BME280;3961;42.058;25.586;2023-12-07T11:59:50;100184.47;;;11.58;100.00
7832;BME280;3961;42.058;25.586;2023-12-07T12:02:34;100189.53;;;11.36;100.00
7832;BME280;3961;42.058;25.586;2023-12-07T12:05:18;100189.09;;;11.39;100.00
7832;BME280;3961;42.058;25.586;2023-12-07T12:07:43;100188.91;;;11.34;100.00
7832;BME280;3961;42.058;25.586;2023-12-07T12:10:09;100181.53;;;11.41;100.00
7832;BME280;3961;42.058;25.586;2023-12-07T12:12:35;100184.13;;;11.30;100.00
7832;BME280;3961;42.058;25.586;2023-12-07T12:15:00;100177.16;;;11.34;100.00
7832;BME280;3961;42.058;25.586;2023-12-07T12:17:32;100173.38;;;11.35;100.00
7832;BME280;3961;42.058;25.586;2023-12-07T12:19:58;100182.38;;;11.60;100.00
7832;BME280;3961;42.058;25.586;2023-12-07T12:22:23;100189.03;;;11.64;100.00
7832;BME280;3961;42.058;25.586;2023-12-07T12:24:49;100177.28;;;11.64;100.00
7832;BME280;3961;42.058;25.586;2023-12-07T12:27:15;100178.69;;;11.73;100.00
7832;BME280;3961;42.058;25.586;2023-12-07T12:29:41;100150.81;;;11.64;100.00
7832;BME280;3961;42.058;25.586;2023-12-07T12:32:08;100177.09;;;11.83;100.00
7832;BME280;3961;42.058;25.586;2023-12-07T12:34:34;100175.53;;;11.69;100.00
7832;BME280;3961;42.058;25.586;2023-12-07T12:36:59;100178.34;;;11.63;100.00
7832;BME280;3961;42.058;25.586;2023-12-07T12:39:29;100174.38;;;13.03;100.00
7832;BME280;3961;42.058;25.586;2023-12-07T12:41:56;100180.09;;;14.46;100.00
7832;BME280;3961;42.058;25.586;2023-12-07T12:44:23;100178.13;;;13.32;100.00
7832;BME280;3961;42.058;25.586;2023-12-07T12:46:48;100191.44;;;12.45;100.00
7832;BME280;3961;42.058;25.586;2023-12-07T12:49:14;100166.03;;;11.78;100.00
7832;BME280;3961;42.058;25.586;2023-12-07T12:51:44;100181.69;;;11.47;100.00
7832;BME280;3961;42.058;25.586;2023-12-07T12:54:09;100170.81;;;11.40;100.00
7832;BME280;3961;42.058;25.586;2023-12-07T12:56:36;100174.91;;;11.49;100.00
7832;BME280;3961;42.058;25.586;2023-12-07T12:59:02;100156.00;;;11.29;100.00
7832;BME280;3961;42.058;25.586;2023-12-07T13:01:28;100174.81;;;11.37;100.00